SBFL/FLN METAR and TAF weather

Enter ICAO airport designator
Station Type Date Time Source
SBFL METAR 2019/06/26 21:00 UTC NOAA

SBFL 262100Z 17006KT 9999 SCT030 BKN037 13/08 Q1017


Station Type Date Time Source
SBFL Decoded METAR 2019/06/26 21:00 UTC NOAA

Florianopolis Aeroporto , Brazil (SBFL) 27-40S 048-33W 5M
Jun 26, 2019 - 05:00 PM EDT / 2019.06.26 2100 UTC
Wind: from the S (170 degrees) at 7 MPH (6 KT):0
Visibility: greater than 7 mile(s):0
Sky conditions: mostly cloudy
Temperature: 55 F (13 C)
Dew Point: 46 F (8 C)
Relative Humidity: 71%
Pressure (altimeter): 30.03 in. Hg (1017 hPa)
ob: SBFL 262100Z 17006KT 9999 SCT030 BKN037 13/08 Q1017
cycle: 21

Station Type Date Time Source
SBFL TAF 2019/06/26 18:48 UTC NOAA

TAF TAF COR SBFL 261530Z 2618/2718 18007KT 8000 FEW015 BKN025 TN12/2706Z TX20/2718Z
BECMG 2618/2620 9999 NSW BKN030
BECMG 2704/2706 27005KT
BECMG 2714/2716 03007KT SCT030
RMK PDW

Example: see airport list